createdAt,value
2022-10-22T00:00:03.930Z,99003.40
2022-10-22T00:00:13.849Z,99006.84
2022-10-22T00:00:23.946Z,99003.14
2022-10-22T00:00:33.929Z,99004.19
2022-10-22T00:00:43.947Z,99003.67
2022-10-22T00:00:53.843Z,99005.92
2022-10-22T00:01:03.877Z,99005.92
2022-10-22T00:01:13.950Z,99008.42
2022-10-22T00:01:23.895Z,99009.75
2022-10-22T00:01:33.911Z,99010.84
2022-10-22T00:01:43.821Z,99002.67
2022-10-22T00:01:53.880Z,99000.44
2022-10-22T00:02:03.926Z,99000.59
2022-10-22T00:02:13.942Z,98999.44
2022-10-22T00:02:23.937Z,99001.43
2022-10-22T00:02:33.846Z,99003.93
2022-10-22T00:02:43.941Z,99001.52
2022-10-22T00:02:53.889Z,99001.06
2022-10-22T00:03:04.001Z,99004.40
2022-10-22T00:03:13.915Z,98999.66
2022-10-22T00:03:23.913Z,99001.78
2022-10-22T00:03:33.951Z,99000.38
2022-10-22T00:03:43.913Z,98997.12
2022-10-22T00:03:53.862Z,98996.00
2022-10-22T00:04:03.928Z,98995.24
2022-10-22T00:04:13.820Z,98996.78
2022-10-22T00:04:23.919Z,98996.00
2022-10-22T00:04:35.463Z,98996.50
2022-10-22T00:04:53.824Z,99000.62
2022-10-22T00:05:03.868Z,98998.25
2022-10-22T00:05:13.912Z,98999.34
2022-10-22T00:05:23.820Z,98996.80
2022-10-22T00:05:33.913Z,98998.01
2022-10-22T00:05:43.849Z,98993.81
2022-10-22T00:05:53.931Z,98996.19
2022-10-22T00:06:03.937Z,98995.52
2022-10-22T00:06:13.930Z,98994.73
2022-10-22T00:06:23.830Z,98993.25
2022-10-22T00:06:33.861Z,98993.75
2022-10-22T00:06:43.871Z,98992.72
2022-10-22T00:06:53.900Z,98997.83
2022-10-22T00:07:03.937Z,98995.85
2022-10-22T00:07:13.840Z,98998.30
2022-10-22T00:07:23.842Z,98999.55
2022-10-22T00:07:33.823Z,99000.52
2022-10-22T00:07:44.016Z,99000.09
2022-10-22T00:07:53.860Z,99003.73
2022-10-22T00:08:03.846Z,98999.78
2022-10-22T00:08:13.907Z,99003.08
2022-10-22T00:08:23.834Z,99007.57
2022-10-22T00:08:33.855Z,99006.69
2022-10-22T00:08:43.982Z,99009.98
2022-10-22T00:08:53.883Z,99008.16
2022-10-22T00:09:03.927Z,99007.67
2022-10-22T00:09:13.948Z,99010.95
2022-10-22T00:09:23.934Z,99016.88
2022-10-22T00:09:33.909Z,99011.55
2022-10-22T00:09:43.841Z,99014.43
2022-10-22T00:09:53.858Z,99021.89
2022-10-22T00:10:03.816Z,99020.05
2022-10-22T00:10:13.817Z,99016.11
2022-10-22T00:10:23.951Z,99016.61
2022-10-22T00:10:33.857Z,99017.31
2022-10-22T00:10:43.921Z,99024.70
2022-10-22T00:10:53.825Z,99020.91
2022-10-22T00:11:03.903Z,99024.09
2022-10-22T00:11:13.950Z,99025.59
2022-10-22T00:11:24.058Z,99021.52
2022-10-22T00:11:33.935Z,99020.15
2022-10-22T00:11:43.938Z,99020.53
2022-10-22T00:11:53.909Z,99019.78
2022-10-22T00:12:03.867Z,99019.46
2022-10-22T00:12:13.827Z,99023.34
2022-10-22T00:12:23.819Z,99021.80
2022-10-22T00:12:33.822Z,99019.06
2022-10-22T00:12:43.926Z,99017.94
2022-10-22T00:12:53.942Z,99016.77
2022-10-22T00:13:03.821Z,99015.66
2022-10-22T00:13:13.874Z,99016.95
2022-10-22T00:13:23.902Z,99016.28
2022-10-22T00:13:33.973Z,99012.02
2022-10-22T00:13:43.945Z,99012.52
2022-10-22T00:13:53.952Z,99008.34
2022-10-22T00:14:03.902Z,99018.02
2022-10-22T00:14:13.898Z,99015.69
2022-10-22T00:14:23.872Z,99016.69
2022-10-22T00:14:33.950Z,99010.70
2022-10-22T00:14:43.914Z,99005.70
2022-10-22T00:14:53.914Z,99010.48
2022-10-22T00:15:03.892Z,99001.30
2022-10-22T00:15:13.832Z,99009.47
2022-10-22T00:15:23.905Z,99004.47
2022-10-22T00:15:33.911Z,99004.10
2022-10-22T00:15:43.907Z,99003.73
2022-10-22T00:15:53.928Z,99001.78
2022-10-22T00:16:03.920Z,99007.11
2022-10-22T00:16:13.933Z,99009.99
2022-10-22T00:16:23.881Z,99001.66
2022-10-22T00:16:33.853Z,98997.17
2022-10-22T00:16:43.864Z,99002.33
2022-10-22T00:16:53.937Z,99001.70
2022-10-22T00:17:05.825Z,99003.30
2022-10-22T00:17:13.905Z,99000.09
2022-10-22T00:17:23.942Z,99003.96
2022-10-22T00:17:33.932Z,99000.93
2022-10-22T00:17:43.878Z,99002.05
2022-10-22T00:17:53.835Z,99000.39
2022-10-22T00:18:03.897Z,99002.19
2022-10-22T00:18:13.916Z,99002.34
2022-10-22T00:18:23.933Z,99002.19
2022-10-22T00:18:33.832Z,99002.36
2022-10-22T00:18:43.947Z,99000.16
2022-10-22T00:18:53.911Z,99000.28
2022-10-22T00:19:03.915Z,99003.79
2022-10-22T00:19:13.848Z,98996.95
2022-10-22T00:19:23.902Z,99006.42
2022-10-22T00:19:33.870Z,99002.75
2022-10-22T00:19:43.928Z,99001.30
2022-10-22T00:19:53.838Z,99002.46
2022-10-22T00:20:03.844Z,99000.62
2022-10-22T00:20:13.937Z,99004.38
2022-10-22T00:20:23.952Z,99001.71
2022-10-22T00:20:33.880Z,98996.64
2022-10-22T00:20:43.879Z,98995.55
2022-10-22T00:20:53.885Z,98995.47
2022-10-22T00:21:03.904Z,99000.35
2022-10-22T00:21:13.942Z,99000.69
2022-10-22T00:21:23.921Z,99000.64
2022-10-22T00:21:33.859Z,99000.14
2022-10-22T00:21:43.873Z,98998.40
2022-10-22T00:21:53.849Z,99000.77
2022-10-22T00:22:03.829Z,99000.94
2022-10-22T00:22:13.873Z,99000.91
2022-10-22T00:22:23.933Z,98998.57
2022-10-22T00:22:33.883Z,98995.91
2022-10-22T00:22:43.979Z,99000.23
2022-10-22T00:22:53.863Z,99001.95
2022-10-22T00:23:03.922Z,99000.62
2022-10-22T00:23:13.915Z,98999.95
2022-10-22T00:23:23.822Z,98999.71
2022-10-22T00:23:33.840Z,99001.21
2022-10-22T00:23:43.842Z,98999.16
2022-10-22T00:23:53.934Z,99002.08
2022-10-22T00:24:03.853Z,99003.34
2022-10-22T00:24:13.927Z,99004.00
2022-10-22T00:24:23.895Z,99002.64
2022-10-22T00:24:33.901Z,99003.18
2022-10-22T00:24:43.860Z,98997.76
2022-10-22T00:24:53.871Z,99001.26
2022-10-22T00:25:03.901Z,99003.09
2022-10-22T00:25:13.854Z,99000.42
2022-10-22T00:25:23.878Z,99004.59
2022-10-22T00:25:33.923Z,99008.31
2022-10-22T00:25:43.843Z,98999.18
2022-10-22T00:25:53.877Z,99005.72
2022-10-22T00:26:03.839Z,99005.55
2022-10-22T00:26:13.945Z,99008.69
2022-10-22T00:26:23.957Z,99006.38
2022-10-22T00:26:33.822Z,99006.14
2022-10-22T00:26:43.854Z,99009.23
2022-10-22T00:26:53.822Z,99008.81
2022-10-22T00:27:03.855Z,99008.23
2022-10-22T00:27:13.857Z,99012.73
2022-10-22T00:27:23.850Z,99005.56
2022-10-22T00:27:33.908Z,99012.02
2022-10-22T00:27:43.913Z,99008.61
2022-10-22T00:27:53.904Z,99006.88
2022-10-22T00:28:03.822Z,99003.23
2022-10-22T00:28:13.893Z,99006.06
2022-10-22T00:28:23.818Z,99003.14
2022-10-22T00:28:33.945Z,99011.77
2022-10-22T00:28:43.957Z,99007.86
2022-10-22T00:28:53.878Z,99008.66
2022-10-22T00:29:03.869Z,99006.81
2022-10-22T00:29:13.887Z,99005.16
2022-10-22T00:29:23.879Z,99007.62
2022-10-22T00:29:33.868Z,99004.83
2022-10-22T00:29:43.947Z,99003.28
2022-10-22T00:29:53.893Z,99005.95
2022-10-22T00:30:03.891Z,99002.36
2022-10-22T00:30:13.885Z,98999.74
2022-10-22T00:30:23.891Z,99003.16
2022-10-22T00:30:33.930Z,99001.00
2022-10-22T00:30:43.819Z,99001.00
2022-10-22T00:30:53.908Z,99002.08
2022-10-22T00:31:03.904Z,99000.75
2022-10-22T00:31:13.933Z,99000.95
2022-10-22T00:31:23.949Z,99000.62
2022-10-22T00:31:33.925Z,99002.04
2022-10-22T00:31:43.916Z,98997.95
2022-10-22T00:32:03.942Z,98998.55
2022-10-22T00:32:13.887Z,99001.33
2022-10-22T00:32:23.850Z,99001.00
2022-10-22T00:32:33.946Z,98998.76
2022-10-22T00:32:43.917Z,98999.96
2022-10-22T00:32:53.913Z,98999.80
2022-10-22T00:33:03.922Z,98998.59
2022-10-22T00:33:13.935Z,98996.67
2022-10-22T00:33:23.859Z,99000.72
2022-10-22T00:33:33.929Z,99001.39
2022-10-22T00:33:43.911Z,98999.05
2022-10-22T00:33:53.905Z,98999.80
2022-10-22T00:34:03.848Z,98996.72
2022-10-22T00:34:13.851Z,98997.42
2022-10-22T00:34:23.889Z,98999.09
2022-10-22T00:34:33.929Z,98992.47
2022-10-22T00:34:43.943Z,98996.92
2022-10-22T00:34:53.920Z,99000.27
2022-10-22T00:35:03.976Z,98996.44
2022-10-22T00:35:13.866Z,98996.72
2022-10-22T00:35:23.904Z,98995.81
2022-10-22T00:35:33.892Z,98997.06
2022-10-22T00:35:43.884Z,98999.31
2022-10-22T00:35:53.819Z,98995.40
2022-10-22T00:36:03.902Z,98994.90
2022-10-22T00:36:13.828Z,98995.14
2022-10-22T00:36:23.882Z,98991.98
2022-10-22T00:36:33.911Z,98998.19
2022-10-22T00:36:43.848Z,98995.35
2022-10-22T00:36:53.823Z,98997.02
2022-10-22T00:37:03.871Z,98996.35
2022-10-22T00:37:13.950Z,98995.85
2022-10-22T00:37:23.863Z,98994.19
2022-10-22T00:37:33.856Z,98992.35
2022-10-22T00:37:43.854Z,98992.56
2022-10-22T00:37:53.922Z,98994.52
2022-10-22T00:38:03.893Z,98993.94
2022-10-22T00:38:13.943Z,98996.03
2022-10-22T00:38:23.905Z,98995.69
2022-10-22T00:38:33.815Z,98994.23
2022-10-22T00:38:43.946Z,98994.20
2022-10-22T00:38:53.928Z,98994.86
2022-10-22T00:39:03.854Z,98992.81
2022-10-22T00:39:13.869Z,98995.99
2022-10-22T00:39:23.932Z,98995.99
2022-10-22T00:39:33.892Z,98993.14
2022-10-22T00:39:43.891Z,98991.14
2022-10-22T00:39:53.869Z,98996.61
2022-10-22T00:40:03.926Z,99000.66
2022-10-22T00:40:13.885Z,98996.32
2022-10-22T00:40:23.884Z,98997.49
2022-10-22T00:40:33.940Z,99000.03
2022-10-22T00:40:43.898Z,98999.11
2022-10-22T00:40:53.952Z,98998.78
2022-10-22T00:41:03.898Z,99003.23
2022-10-22T00:41:13.920Z,98999.28
2022-10-22T00:41:23.944Z,99003.07
2022-10-22T00:41:33.901Z,99002.41
2022-10-22T00:41:43.882Z,99008.99
2022-10-22T00:41:53.870Z,99005.57
2022-10-22T00:42:03.841Z,99005.92
2022-10-22T00:42:13.882Z,99006.92
2022-10-22T00:42:23.924Z,99008.75
2022-10-22T00:42:33.928Z,99005.33
2022-10-22T00:42:44.069Z,99005.42
2022-10-22T00:42:53.919Z,99007.49
2022-10-22T00:43:03.857Z,99010.70
2022-10-22T00:43:13.951Z,99007.08
2022-10-22T00:43:23.834Z,99008.53
2022-10-22T00:43:33.885Z,99007.05
2022-10-22T00:43:43.916Z,99005.53
2022-10-22T00:43:53.845Z,99009.71
2022-10-22T00:44:03.936Z,99008.37
2022-10-22T00:44:13.851Z,99012.66
2022-10-22T00:44:23.865Z,99005.20
2022-10-22T00:44:33.863Z,99004.88
2022-10-22T00:44:43.940Z,99007.42
2022-10-22T00:44:53.867Z,99007.59
2022-10-22T00:45:03.942Z,99006.05
2022-10-22T00:45:13.863Z,99005.16
2022-10-22T00:45:23.819Z,99004.58
2022-10-22T00:45:33.822Z,99007.09
2022-10-22T00:45:43.872Z,99005.92
2022-10-22T00:45:53.905Z,99006.92
2022-10-22T00:46:03.874Z,99003.34
2022-10-22T00:46:13.859Z,99005.66
2022-10-22T00:46:23.822Z,99003.49
2022-10-22T00:46:33.827Z,99006.34
2022-10-22T00:46:43.926Z,99005.92
2022-10-22T00:46:53.885Z,99003.75
2022-10-22T00:47:03.844Z,99002.25
2022-10-22T00:47:13.853Z,99001.42
2022-10-22T00:47:23.892Z,99001.75
2022-10-22T00:47:33.949Z,98999.17
2022-10-22T00:47:43.828Z,99002.17
2022-10-22T00:47:53.891Z,98997.55
2022-10-22T00:48:03.875Z,99002.16
2022-10-22T00:48:13.890Z,99003.42
2022-10-22T00:48:23.927Z,98998.55
2022-10-22T00:48:33.852Z,99002.25
2022-10-22T00:48:43.878Z,98997.88
2022-10-22T00:48:53.896Z,99000.95
2022-10-22T00:49:03.904Z,99001.53
2022-10-22T00:49:13.916Z,99003.05
2022-10-22T00:49:23.882Z,98999.45
2022-10-22T00:49:33.944Z,98998.37
2022-10-22T00:49:43.942Z,98998.87
2022-10-22T00:49:54.024Z,99000.55
2022-10-22T00:50:13.838Z,98998.37
2022-10-22T00:50:23.898Z,98997.91
2022-10-22T00:50:33.948Z,99001.20
2022-10-22T00:50:43.880Z,98997.66
2022-10-22T00:50:53.866Z,99000.41
2022-10-22T00:51:03.825Z,99000.20
2022-10-22T00:51:13.821Z,98998.16
2022-10-22T00:51:23.830Z,98996.83
2022-10-22T00:51:33.840Z,99001.20
2022-10-22T00:51:43.820Z,99002.49
2022-10-22T00:51:53.914Z,99001.50
2022-10-22T00:52:03.949Z,98995.95
2022-10-22T00:52:13.827Z,99001.00
2022-10-22T00:52:23.842Z,99000.57
2022-10-22T00:52:33.860Z,98995.16
2022-10-22T00:52:44.008Z,98998.25
2022-10-22T00:52:53.869Z,98999.28
2022-10-22T00:53:03.869Z,99003.83
2022-10-22T00:53:13.920Z,99002.70
2022-10-22T00:53:23.912Z,99003.99
2022-10-22T00:53:33.851Z,99000.78
2022-10-22T00:53:43.821Z,99002.49
2022-10-22T00:53:53.841Z,99000.45
2022-10-22T00:54:03.825Z,99004.16
2022-10-22T00:54:13.864Z,99003.94
2022-10-22T00:54:23.856Z,99005.62
2022-10-22T00:54:33.888Z,99007.49
2022-10-22T00:54:43.894Z,99006.70
2022-10-22T00:54:53.902Z,99008.27
2022-10-22T00:55:03.862Z,99006.61
2022-10-22T00:55:13.941Z,99004.41
2022-10-22T00:55:23.926Z,99007.57
2022-10-22T00:55:33.926Z,99008.14
2022-10-22T00:55:43.822Z,99014.23
2022-10-22T00:55:53.832Z,99011.91
2022-10-22T00:56:03.922Z,99012.57
2022-10-22T00:56:13.858Z,99012.91
2022-10-22T00:56:23.924Z,99012.98
2022-10-22T00:56:33.909Z,99009.98
2022-10-22T00:56:43.954Z,99014.91
2022-10-22T00:56:53.880Z,99013.53
2022-10-22T00:57:03.917Z,99012.53
2022-10-22T00:57:13.937Z,99014.44
2022-10-22T00:57:23.900Z,99015.81
2022-10-22T00:57:33.903Z,99017.65
2022-10-22T00:57:43.910Z,99015.11
2022-10-22T00:57:53.832Z,99016.03
2022-10-22T00:58:03.856Z,99016.86
2022-10-22T00:58:13.832Z,99016.19
2022-10-22T00:58:23.940Z,99016.69
2022-10-22T00:58:33.942Z,99014.52
2022-10-22T00:58:43.888Z,99018.52
2022-10-22T00:58:53.843Z,99018.02
2022-10-22T00:59:03.997Z,99016.06
2022-10-22T00:59:13.913Z,99016.35
2022-10-22T00:59:23.844Z,99022.44
2022-10-22T00:59:33.926Z,99019.31
2022-10-22T00:59:43.869Z,99020.14
2022-10-22T00:59:53.911Z,99024.73
2022-10-22T01:00:03.905Z,99022.31
2022-10-22T01:00:13.818Z,99017.94
2022-10-22T01:00:23.852Z,99018.27
2022-10-22T01:00:33.930Z,99014.26
2022-10-22T01:00:43.901Z,99022.59
2022-10-22T01:00:53.890Z,99018.26
2022-10-22T01:01:03.951Z,99019.92
2022-10-22T01:01:14.027Z,99015.38
2022-10-22T01:01:23.986Z,99020.14
2022-10-22T01:01:33.840Z,99018.72
2022-10-22T01:01:43.823Z,99015.67
2022-10-22T01:01:53.870Z,99015.09
2022-10-22T01:02:03.900Z,99013.50
2022-10-22T01:02:13.817Z,99015.50
2022-10-22T01:02:23.937Z,99018.38
2022-10-22T01:02:33.940Z,99013.95
2022-10-22T01:02:43.901Z,99019.45
2022-10-22T01:02:53.933Z,99018.95
2022-10-22T01:03:03.939Z,99021.38
2022-10-22T01:03:13.948Z,99019.03
2022-10-22T01:03:23.838Z,99017.88
2022-10-22T01:03:33.885Z,99012.75
2022-10-22T01:03:43.917Z,99021.45
2022-10-22T01:03:53.865Z,99023.41
2022-10-22T01:04:03.895Z,99020.41
2022-10-22T01:04:13.872Z,99022.87
2022-10-22T01:04:23.855Z,99013.59
2022-10-22T01:04:33.895Z,99015.91
2022-10-22T01:04:43.949Z,99017.88
2022-10-22T01:04:53.845Z,99016.75
2022-10-22T01:05:03.930Z,99018.07
2022-10-22T01:05:13.944Z,99019.50
2022-10-22T01:05:23.868Z,99016.58
2022-10-22T01:05:33.861Z,99017.08
2022-10-22T01:05:43.932Z,99020.23
2022-10-22T01:05:53.855Z,99015.33
2022-10-22T01:06:03.940Z,99014.83
2022-10-22T01:06:13.937Z,99016.41
2022-10-22T01:06:23.913Z,99019.53
2022-10-22T01:06:33.835Z,99014.41
2022-10-22T01:06:43.927Z,99016.20
2022-10-22T01:06:53.853Z,99018.70
2022-10-22T01:07:03.882Z,99016.66
2022-10-22T01:07:13.906Z,99014.75
2022-10-22T01:07:23.881Z,99012.58
2022-10-22T01:07:33.900Z,99016.50
2022-10-22T01:07:43.903Z,99011.41
2022-10-22T01:07:53.936Z,99015.28
2022-10-22T01:08:03.954Z,99014.91
2022-10-22T01:08:13.929Z,99011.41
2022-10-22T01:08:23.854Z,99011.20
2022-10-22T01:08:33.985Z,99011.03
2022-10-22T01:08:43.893Z,99012.03
2022-10-22T01:08:53.919Z,99009.53
2022-10-22T01:09:04.023Z,99009.48
2022-10-22T01:09:13.933Z,99011.33
2022-10-22T01:09:23.908Z,99008.70
2022-10-22T01:09:33.906Z,99007.27
2022-10-22T01:09:43.930Z,99003.94
2022-10-22T01:09:53.910Z,99004.06
2022-10-22T01:10:03.944Z,99009.39
2022-10-22T01:10:13.825Z,99005.06
2022-10-22T01:10:23.913Z,99004.73
2022-10-22T01:10:33.834Z,99004.90
2022-10-22T01:10:43.859Z,99004.72
2022-10-22T01:10:53.871Z,99007.64
2022-10-22T01:11:03.849Z,99009.88
2022-10-22T01:11:13.823Z,99006.22
2022-10-22T01:11:23.844Z,99009.18
2022-10-22T01:11:33.948Z,99004.47
2022-10-22T01:11:43.831Z,99001.30
2022-10-22T01:11:53.908Z,99004.72
2022-10-22T01:12:03.916Z,99004.00
2022-10-22T01:12:13.927Z,99004.25
2022-10-22T01:12:23.904Z,99003.17
2022-10-22T01:12:33.878Z,99002.38
2022-10-22T01:12:43.827Z,98999.37
2022-10-22T01:12:53.853Z,99003.05
2022-10-22T01:13:03.852Z,99001.29
2022-10-22T01:13:13.898Z,99002.03
2022-10-22T01:13:23.927Z,99006.29
2022-10-22T01:13:33.823Z,99006.08
2022-10-22T01:13:43.836Z,99006.86
2022-10-22T01:13:53.932Z,99004.53
2022-10-22T01:14:03.906Z,99002.48
2022-10-22T01:14:13.948Z,99001.45
2022-10-22T01:14:23.948Z,99004.45
2022-10-22T01:14:33.819Z,98999.12
2022-10-22T01:14:43.951Z,98996.11
2022-10-22T01:14:53.871Z,99002.86
2022-10-22T01:15:03.919Z,99000.27
2022-10-22T01:15:13.857Z,99002.27
2022-10-22T01:15:23.823Z,99000.73
2022-10-22T01:15:33.871Z,98995.98
2022-10-22T01:15:43.908Z,98993.69
2022-10-22T01:15:53.881Z,98993.86
2022-10-22T01:16:03.838Z,98993.02
2022-10-22T01:16:13.905Z,98990.69
2022-10-22T01:16:23.869Z,98994.14
2022-10-22T01:16:33.936Z,98997.05
2022-10-22T01:16:43.857Z,98991.67
2022-10-22T01:16:53.910Z,98993.93
2022-10-22T01:17:03.880Z,98992.51
2022-10-22T01:17:13.980Z,98989.56
2022-10-22T01:17:23.826Z,98990.71
2022-10-22T01:17:33.943Z,98988.76
2022-10-22T01:17:43.950Z,98991.34
2022-10-22T01:17:53.920Z,98993.84
2022-10-22T01:18:03.869Z,98990.80
2022-10-22T01:18:13.888Z,98994.30
2022-10-22T01:18:23.945Z,98996.53
2022-10-22T01:18:33.940Z,98994.33
2022-10-22T01:18:43.877Z,98995.11
2022-10-22T01:18:53.881Z,98996.31
2022-10-22T01:19:03.884Z,98999.19
2022-10-22T01:19:13.863Z,98995.98
2022-10-22T01:19:23.929Z,98998.48
2022-10-22T01:19:33.878Z,99001.72
2022-10-22T01:19:43.888Z,98996.52
2022-10-22T01:19:53.956Z,99001.42
2022-10-22T01:20:03.828Z,99000.97
2022-10-22T01:20:13.844Z,98999.95
2022-10-22T01:20:23.838Z,99000.91
2022-10-22T01:20:33.918Z,98997.75
2022-10-22T01:20:43.952Z,98998.99
2022-10-22T01:20:53.884Z,99002.74
2022-10-22T01:21:03.859Z,99001.32
2022-10-22T01:21:13.827Z,99001.91
2022-10-22T01:21:23.885Z,99001.95
2022-10-22T01:21:33.954Z,99003.95
2022-10-22T01:21:43.891Z,99000.61
2022-10-22T01:21:53.927Z,99005.11
2022-10-22T01:22:03.830Z,98997.91
2022-10-22T01:22:13.944Z,99005.52
2022-10-22T01:22:23.924Z,99004.45
2022-10-22T01:22:33.901Z,99002.52
2022-10-22T01:22:43.915Z,99001.02
2022-10-22T01:22:53.938Z,99004.45
2022-10-22T01:23:03.922Z,99001.95
2022-10-22T01:23:13.854Z,99001.95
2022-10-22T01:23:23.950Z,99002.61
2022-10-22T01:23:33.835Z,98999.99
2022-10-22T01:23:43.850Z,99004.48
2022-10-22T01:23:53.856Z,99000.28
2022-10-22T01:24:03.857Z,98999.12
2022-10-22T01:24:13.880Z,99002.19
2022-10-22T01:24:23.904Z,98998.24
2022-10-22T01:24:33.837Z,98998.12
2022-10-22T01:24:43.818Z,98996.36
2022-10-22T01:24:53.880Z,99000.11
2022-10-22T01:25:03.870Z,98998.45
2022-10-22T01:25:13.906Z,99000.61
2022-10-22T01:25:23.920Z,98997.91
2022-10-22T01:25:33.936Z,98996.27
2022-10-22T01:25:43.868Z,98997.89
2022-10-22T01:25:53.860Z,98997.39
2022-10-22T01:26:03.936Z,98998.24
2022-10-22T01:26:13.921Z,98997.44
2022-10-22T01:26:33.847Z,99004.06
2022-10-22T01:26:43.885Z,99000.19
2022-10-22T01:26:53.900Z,99002.10
2022-10-22T01:27:03.911Z,99000.80
2022-10-22T01:27:13.896Z,98998.48
2022-10-22T01:27:23.850Z,99001.97
2022-10-22T01:27:33.819Z,98998.96
2022-10-22T01:27:43.986Z,98996.63
2022-10-22T01:27:53.914Z,99000.12
2022-10-22T01:28:03.968Z,99001.46
2022-10-22T01:28:13.842Z,99002.34
2022-10-22T01:28:23.957Z,99002.84
2022-10-22T01:28:33.856Z,98998.09
2022-10-22T01:28:43.859Z,99002.20
2022-10-22T01:28:53.903Z,99000.58
2022-10-22T01:29:03.938Z,99002.49
2022-10-22T01:29:13.846Z,99004.88
2022-10-22T01:29:23.906Z,98999.88
2022-10-22T01:29:33.862Z,99002.62
2022-10-22T01:29:43.922Z,99002.48
2022-10-22T01:29:53.819Z,99003.81
2022-10-22T01:30:03.910Z,99004.48
2022-10-22T01:30:13.844Z,99000.16
2022-10-22T01:30:23.902Z,99004.98
2022-10-22T01:30:33.841Z,99002.94
2022-10-22T01:30:43.897Z,99001.78
2022-10-22T01:30:53.830Z,99006.23
2022-10-22T01:31:03.857Z,99003.59
2022-10-22T01:31:13.931Z,99010.27
2022-10-22T01:31:23.908Z,99008.84
2022-10-22T01:31:33.933Z,99005.84
2022-10-22T01:31:43.824Z,99004.85
2022-10-22T01:31:53.850Z,99011.67
2022-10-22T01:32:03.944Z,99009.97
2022-10-22T01:32:13.933Z,99009.80
2022-10-22T01:32:23.908Z,99010.72
2022-10-22T01:32:33.887Z,99011.67
2022-10-22T01:32:43.896Z,99012.29
2022-10-22T01:32:53.926Z,99011.50
2022-10-22T01:33:03.878Z,99015.50
2022-10-22T01:33:13.929Z,99013.16
2022-10-22T01:33:23.874Z,99009.58
2022-10-22T01:33:33.894Z,99011.48
2022-10-22T01:33:43.918Z,99012.98
2022-10-22T01:33:53.828Z,99013.98
2022-10-22T01:34:03.926Z,99011.98
2022-10-22T01:34:13.916Z,99012.11
2022-10-22T01:34:23.940Z,99010.08
2022-10-22T01:34:33.885Z,99012.95
2022-10-22T01:34:43.839Z,99015.94
2022-10-22T01:34:53.823Z,99013.06
2022-10-22T01:35:03.819Z,99012.41
2022-10-22T01:35:13.885Z,99014.14
2022-10-22T01:35:23.894Z,99012.81
2022-10-22T01:35:43.832Z,99010.56
2022-10-22T01:35:53.834Z,99014.55
2022-10-22T01:36:03.909Z,99013.52
2022-10-22T01:36:13.931Z,99013.25
2022-10-22T01:36:23.847Z,99014.75
2022-10-22T01:36:33.892Z,99011.97
2022-10-22T01:36:43.855Z,99013.64
2022-10-22T01:36:53.923Z,99015.42
2022-10-22T01:37:03.826Z,99014.58
2022-10-22T01:37:13.868Z,99016.83
2022-10-22T01:37:23.915Z,99010.88
2022-10-22T01:37:33.865Z,99013.37
2022-10-22T01:37:44.021Z,99011.52
2022-10-22T01:37:53.817Z,99012.69
2022-10-22T01:38:03.887Z,99017.23
2022-10-22T01:38:13.891Z,99017.69
2022-10-22T01:38:23.916Z,99014.48
2022-10-22T01:38:33.834Z,99009.61
2022-10-22T01:38:43.855Z,99013.31
2022-10-22T01:38:53.919Z,99010.61
2022-10-22T01:39:03.964Z,99011.27
2022-10-22T01:39:13.930Z,99013.05
2022-10-22T01:39:23.879Z,99010.44
2022-10-22T01:39:33.825Z,99012.52
2022-10-22T01:39:43.847Z,99010.34
2022-10-22T01:39:53.840Z,99014.25
2022-10-22T01:40:03.858Z,99010.76
2022-10-22T01:40:13.828Z,99013.42
2022-10-22T01:40:23.889Z,99012.55
2022-10-22T01:40:33.872Z,99008.12
2022-10-22T01:40:43.902Z,99004.84
2022-10-22T01:40:53.888Z,99007.17
2022-10-22T01:41:03.939Z,99006.59
2022-10-22T01:41:13.819Z,99006.92
2022-10-22T01:41:23.847Z,99011.25
2022-10-22T01:41:33.884Z,99007.45
2022-10-22T01:41:43.935Z,99006.28
2022-10-22T01:41:53.948Z,99009.78
2022-10-22T01:42:03.917Z,99003.61
2022-10-22T01:42:13.822Z,99006.02
2022-10-22T01:42:23.846Z,99006.73
2022-10-22T01:42:33.895Z,99003.19
2022-10-22T01:42:43.817Z,99007.42
2022-10-22T01:42:53.839Z,99004.97
2022-10-22T01:43:03.930Z,99002.81
2022-10-22T01:43:13.866Z,99004.81
2022-10-22T01:43:23.909Z,99003.13
2022-10-22T01:43:33.937Z,99004.46
2022-10-22T01:43:43.842Z,99004.80
2022-10-22T01:43:53.881Z,99005.12
2022-10-22T01:44:03.818Z,99004.59
2022-10-22T01:44:13.923Z,99004.33
2022-10-22T01:44:23.956Z,99003.25
2022-10-22T01:44:33.838Z,99002.55
2022-10-22T01:44:43.864Z,99003.78
2022-10-22T01:44:53.926Z,99009.53
2022-10-22T01:45:03.877Z,99004.86
2022-10-22T01:45:13.933Z,99008.23
2022-10-22T01:45:23.854Z,99007.57
2022-10-22T01:45:33.862Z,99009.14
2022-10-22T01:45:43.936Z,99005.27
2022-10-22T01:45:53.926Z,99005.09
2022-10-22T01:46:03.869Z,99005.55
2022-10-22T01:46:13.816Z,99004.76
2022-10-22T01:46:23.937Z,99005.55
2022-10-22T01:46:33.954Z,99008.71
2022-10-22T01:46:43.889Z,99006.38
2022-10-22T01:46:53.946Z,99005.88
2022-10-22T01:47:03.827Z,99008.38
2022-10-22T01:47:13.949Z,99008.50
2022-10-22T01:47:23.917Z,99008.00
2022-10-22T01:47:33.878Z,99008.95
2022-10-22T01:47:44.018Z,99003.83
2022-10-22T01:47:53.857Z,99006.84
2022-10-22T01:48:03.893Z,99007.83
2022-10-22T01:48:13.938Z,99006.16
2022-10-22T01:48:23.862Z,99006.32
2022-10-22T01:48:33.861Z,99006.98
2022-10-22T01:48:43.849Z,99008.65
2022-10-22T01:48:53.854Z,99008.15
2022-10-22T01:49:03.815Z,99010.36
2022-10-22T01:49:13.827Z,99009.15
2022-10-22T01:49:23.950Z,99010.08
2022-10-22T01:49:33.936Z,99007.08
2022-10-22T01:49:43.910Z,99003.33
2022-10-22T01:49:53.924Z,99010.12
2022-10-22T01:50:03.841Z,99009.50
2022-10-22T01:50:13.971Z,99006.00
2022-10-22T01:50:23.923Z,99006.05
2022-10-22T01:50:33.898Z,99005.05
2022-10-22T01:50:43.933Z,99005.05
2022-10-22T01:50:53.833Z,99003.39
2022-10-22T01:51:03.928Z,99005.97
2022-10-22T01:51:13.932Z,99004.61
2022-10-22T01:51:23.900Z,99002.27
2022-10-22T01:51:33.905Z,99009.44
2022-10-22T01:51:43.863Z,99006.72
2022-10-22T01:51:53.955Z,99005.31
2022-10-22T01:52:03.857Z,99005.91
2022-10-22T01:52:13.917Z,99004.03
2022-10-22T01:52:23.930Z,99006.08
2022-10-22T01:52:33.888Z,99005.58
2022-10-22T01:52:43.869Z,99004.42
2022-10-22T01:52:53.896Z,99002.47
2022-10-22T01:53:03.836Z,99005.72
2022-10-22T01:53:13.943Z,99004.28
2022-10-22T01:53:23.859Z,99007.44
2022-10-22T01:53:33.887Z,99003.11
2022-10-22T01:53:53.940Z,99003.00
2022-10-22T01:54:03.936Z,99003.67
2022-10-22T01:54:13.826Z,99007.30
2022-10-22T01:54:23.817Z,99009.81
2022-10-22T01:54:33.834Z,99005.43
2022-10-22T01:54:43.921Z,99003.09
2022-10-22T01:54:53.851Z,99003.82
2022-10-22T01:55:03.858Z,99001.66
2022-10-22T01:55:13.921Z,99004.36
2022-10-22T01:55:23.896Z,99004.03
2022-10-22T01:55:33.837Z,98998.91
2022-10-22T01:55:43.860Z,99002.09
2022-10-22T01:55:53.844Z,99000.76
2022-10-22T01:56:03.886Z,98996.73
2022-10-22T01:56:13.917Z,98999.81
2022-10-22T01:56:23.913Z,99002.28
2022-10-22T01:56:33.897Z,99002.56
2022-10-22T01:56:43.832Z,99003.58
2022-10-22T01:56:53.841Z,99004.58
2022-10-22T01:57:03.914Z,99002.91
2022-10-22T01:57:13.882Z,98995.92
2022-10-22T01:57:23.850Z,98996.30
2022-10-22T01:57:33.906Z,98999.59
2022-10-22T01:57:44.030Z,98996.88
2022-10-22T01:57:53.921Z,98994.77
2022-10-22T01:58:03.890Z,98995.17
2022-10-22T01:58:13.867Z,98997.42
2022-10-22T01:58:23.856Z,98994.35